sensor_id;sensor_type;location;lat;lon;timestamp;P1;durP1;ratioP1;P2;durP2;ratioP2
13197;SDS011;6664;52.514;13.440;2024-03-25T00:01:50;1.47;;;1.37;;
13197;SDS011;6664;52.514;13.440;2024-03-25T00:04:35;2.67;;;1.87;;
13197;SDS011;6664;52.514;13.440;2024-03-25T00:07:20;2.03;;;1.93;;
13197;SDS011;6664;52.514;13.440;2024-03-25T00:10:07;1.70;;;1.60;;
13197;SDS011;6664;52.514;13.440;2024-03-25T00:12:52;2.13;;;2.03;;
13197;SDS011;6664;52.514;13.440;2024-03-25T00:15:39;2.20;;;1.37;;
13197;SDS011;6664;52.514;13.440;2024-03-25T00:18:23;1.70;;;1.60;;
13197;SDS011;6664;52.514;13.440;2024-03-25T00:21:08;1.70;;;1.60;;
13197;SDS011;6664;52.514;13.440;2024-03-25T00:23:53;1.60;;;1.50;;
13197;SDS011;6664;52.514;13.440;2024-03-25T00:26:40;1.50;;;1.40;;
13197;SDS011;6664;52.514;13.440;2024-03-25T00:29:24;1.97;;;1.87;;
13197;SDS011;6664;52.514;13.440;2024-03-25T00:32:11;2.17;;;2.00;;
13197;SDS011;6664;52.514;13.440;2024-03-25T00:34:56;2.27;;;1.90;;
13197;SDS011;6664;52.514;13.440;2024-03-25T00:37:44;2.30;;;2.10;;
13197;SDS011;6664;52.514;13.440;2024-03-25T00:40:29;2.10;;;2.00;;
13197;SDS011;6664;52.514;13.440;2024-03-25T00:43:13;1.90;;;1.80;;
13197;SDS011;6664;52.514;13.440;2024-03-25T00:46:00;2.57;;;2.37;;
13197;SDS011;6664;52.514;13.440;2024-03-25T00:48:44;2.10;;;2.00;;
13197;SDS011;6664;52.514;13.440;2024-03-25T00:51:29;1.73;;;1.63;;
13197;SDS011;6664;52.514;13.440;2024-03-25T00:54:13;2.40;;;2.20;;
13197;SDS011;6664;52.514;13.440;2024-03-25T00:56:58;2.20;;;1.97;;
13197;SDS011;6664;52.514;13.440;2024-03-25T00:59:43;2.60;;;2.40;;
13197;SDS011;6664;52.514;13.440;2024-03-25T01:02:28;5.23;;;2.70;;
13197;SDS011;6664;52.514;13.440;2024-03-25T01:05:15;2.63;;;2.43;;
13197;SDS011;6664;52.514;13.440;2024-03-25T01:08:00;2.17;;;2.07;;
13197;SDS011;6664;52.514;13.440;2024-03-25T01:10:44;3.10;;;2.80;;
13197;SDS011;6664;52.514;13.440;2024-03-25T01:13:29;5.40;;;2.20;;
13197;SDS011;6664;52.514;13.440;2024-03-25T01:16:13;2.87;;;2.03;;
13197;SDS011;6664;52.514;13.440;2024-03-25T01:18:57;2.80;;;2.60;;
13197;SDS011;6664;52.514;13.440;2024-03-25T01:21:43;3.00;;;2.30;;
13197;SDS011;6664;52.514;13.440;2024-03-25T01:24:28;2.80;;;2.60;;
13197;SDS011;6664;52.514;13.440;2024-03-25T01:27:13;3.23;;;2.30;;
13197;SDS011;6664;52.514;13.440;2024-03-25T01:30:00;3.03;;;2.73;;
13197;SDS011;6664;52.514;13.440;2024-03-25T01:32:47;2.60;;;2.40;;
13197;SDS011;6664;52.514;13.440;2024-03-25T01:35:34;3.50;;;2.90;;
13197;SDS011;6664;52.514;13.440;2024-03-25T01:38:19;3.07;;;2.87;;
13197;SDS011;6664;52.514;13.440;2024-03-25T01:41:10;4.83;;;2.77;;
13197;SDS011;6664;52.514;13.440;2024-03-25T01:43:56;3.47;;;3.10;;
13197;SDS011;6664;52.514;13.440;2024-03-25T01:46:40;3.63;;;2.50;;
13197;SDS011;6664;52.514;13.440;2024-03-25T01:49:27;3.07;;;2.80;;
13197;SDS011;6664;52.514;13.440;2024-03-25T01:52:12;3.73;;;3.03;;
13197;SDS011;6664;52.514;13.440;2024-03-25T01:54:56;3.13;;;2.80;;
13197;SDS011;6664;52.514;13.440;2024-03-25T01:57:41;3.10;;;2.77;;
13197;SDS011;6664;52.514;13.440;2024-03-25T02:00:27;3.23;;;3.00;;
13197;SDS011;6664;52.514;13.440;2024-03-25T02:03:15;2.60;;;2.40;;
13197;SDS011;6664;52.514;13.440;2024-03-25T02:06:03;2.83;;;2.63;;
13197;SDS011;6664;52.514;13.440;2024-03-25T02:08:56;1.80;;;1.70;;
13197;SDS011;6664;52.514;13.440;2024-03-25T02:11:45;1.20;;;1.10;;
13197;SDS011;6664;52.514;13.440;2024-03-25T02:14:30;0.90;;;0.90;;
13197;SDS011;6664;52.514;13.440;2024-03-25T02:17:15;1.87;;;1.00;;
13197;SDS011;6664;52.514;13.440;2024-03-25T02:19:59;3.60;;;0.93;;
13197;SDS011;6664;52.514;13.440;2024-03-25T02:22:47;1.00;;;0.90;;
13197;SDS011;6664;52.514;13.440;2024-03-25T02:25:33;0.93;;;0.93;;
13197;SDS011;6664;52.514;13.440;2024-03-25T02:28:19;0.90;;;0.90;;
13197;SDS011;6664;52.514;13.440;2024-03-25T02:31:04;0.90;;;0.90;;
13197;SDS011;6664;52.514;13.440;2024-03-25T02:33:48;1.00;;;0.90;;
13197;SDS011;6664;52.514;13.440;2024-03-25T02:36:33;1.10;;;1.10;;
13197;SDS011;6664;52.514;13.440;2024-03-25T02:39:17;1.13;;;1.03;;
13197;SDS011;6664;52.514;13.440;2024-03-25T02:42:06;0.93;;;0.90;;
13197;SDS011;6664;52.514;13.440;2024-03-25T02:44:51;1.20;;;1.20;;
13197;SDS011;6664;52.514;13.440;2024-03-25T02:47:36;0.80;;;0.80;;
13197;SDS011;6664;52.514;13.440;2024-03-25T02:50:20;2.00;;;1.40;;
13197;SDS011;6664;52.514;13.440;2024-03-25T02:53:05;1.03;;;1.03;;
13197;SDS011;6664;52.514;13.440;2024-03-25T02:55:50;1.07;;;1.07;;
13197;SDS011;6664;52.514;13.440;2024-03-25T02:58:35;0.80;;;0.80;;
13197;SDS011;6664;52.514;13.440;2024-03-25T03:01:20;0.70;;;0.70;;
13197;SDS011;6664;52.514;13.440;2024-03-25T03:04:04;1.07;;;0.80;;
13197;SDS011;6664;52.514;13.440;2024-03-25T03:06:51;1.37;;;1.27;;
13197;SDS011;6664;52.514;13.440;2024-03-25T03:09:35;1.40;;;1.30;;
13197;SDS011;6664;52.514;13.440;2024-03-25T03:12:22;1.23;;;1.07;;
13197;SDS011;6664;52.514;13.440;2024-03-25T03:15:11;1.10;;;1.10;;
13197;SDS011;6664;52.514;13.440;2024-03-25T03:17:55;1.00;;;1.00;;
13197;SDS011;6664;52.514;13.440;2024-03-25T03:20:40;0.90;;;0.90;;
13197;SDS011;6664;52.514;13.440;2024-03-25T03:23:24;1.83;;;1.30;;
13197;SDS011;6664;52.514;13.440;2024-03-25T03:26:11;1.40;;;1.30;;
13197;SDS011;6664;52.514;13.440;2024-03-25T03:28:57;2.30;;;1.50;;
13197;SDS011;6664;52.514;13.440;2024-03-25T03:31:42;2.20;;;2.00;;
13197;SDS011;6664;52.514;13.440;2024-03-25T03:34:27;3.60;;;2.30;;
13197;SDS011;6664;52.514;13.440;2024-03-25T03:37:12;1.93;;;1.83;;
13197;SDS011;6664;52.514;13.440;2024-03-25T03:39:58;4.40;;;2.10;;
13197;SDS011;6664;52.514;13.440;2024-03-25T03:42:43;1.77;;;1.60;;
13197;SDS011;6664;52.514;13.440;2024-03-25T03:45:32;2.40;;;2.20;;
13197;SDS011;6664;52.514;13.440;2024-03-25T03:48:17;2.77;;;2.07;;
13197;SDS011;6664;52.514;13.440;2024-03-25T03:51:04;2.70;;;1.87;;
13197;SDS011;6664;52.514;13.440;2024-03-25T03:53:52;1.63;;;1.53;;
13197;SDS011;6664;52.514;13.440;2024-03-25T03:56:37;3.57;;;1.70;;
13197;SDS011;6664;52.514;13.440;2024-03-25T03:59:22;1.70;;;1.60;;
13197;SDS011;6664;52.514;13.440;2024-03-25T04:02:07;1.73;;;1.50;;
13197;SDS011;6664;52.514;13.440;2024-03-25T04:04:52;1.60;;;1.40;;
13197;SDS011;6664;52.514;13.440;2024-03-25T04:07:37;3.93;;;1.90;;
13197;SDS011;6664;52.514;13.440;2024-03-25T04:10:22;1.17;;;1.10;;
13197;SDS011;6664;52.514;13.440;2024-03-25T04:13:07;4.10;;;1.70;;
13197;SDS011;6664;52.514;13.440;2024-03-25T04:15:52;1.77;;;1.60;;
13197;SDS011;6664;52.514;13.440;2024-03-25T04:18:39;1.33;;;1.23;;
13197;SDS011;6664;52.514;13.440;2024-03-25T04:21:26;2.30;;;1.63;;
13197;SDS011;6664;52.514;13.440;2024-03-25T04:24:14;1.87;;;1.77;;
13197;SDS011;6664;52.514;13.440;2024-03-25T04:27:00;3.23;;;1.73;;
13197;SDS011;6664;52.514;13.440;2024-03-25T04:29:45;1.40;;;1.30;;
13197;SDS011;6664;52.514;13.440;2024-03-25T04:32:33;2.20;;;1.67;;
13197;SDS011;6664;52.514;13.440;2024-03-25T04:35:18;2.47;;;1.30;;
13197;SDS011;6664;52.514;13.440;2024-03-25T04:38:06;4.80;;;1.20;;
13197;SDS011;6664;52.514;13.440;2024-03-25T04:40:53;2.50;;;1.30;;
13197;SDS011;6664;52.514;13.440;2024-03-25T04:43:40;1.10;;;1.10;;
13197;SDS011;6664;52.514;13.440;2024-03-25T04:46:25;1.50;;;1.40;;
13197;SDS011;6664;52.514;13.440;2024-03-25T04:49:10;2.00;;;1.90;;
13197;SDS011;6664;52.514;13.440;2024-03-25T04:51:54;2.40;;;1.83;;
13197;SDS011;6664;52.514;13.440;2024-03-25T04:54:39;1.83;;;1.73;;
13197;SDS011;6664;52.514;13.440;2024-03-25T04:57:24;3.00;;;1.87;;
13197;SDS011;6664;52.514;13.440;2024-03-25T05:00:08;3.37;;;2.23;;
13197;SDS011;6664;52.514;13.440;2024-03-25T05:02:56;3.30;;;1.90;;
13197;SDS011;6664;52.514;13.440;2024-03-25T05:05:40;2.53;;;2.27;;
13197;SDS011;6664;52.514;13.440;2024-03-25T05:08:25;2.00;;;1.80;;
13197;SDS011;6664;52.514;13.440;2024-03-25T05:11:09;2.30;;;1.73;;
13197;SDS011;6664;52.514;13.440;2024-03-25T05:13:54;2.23;;;2.03;;
13197;SDS011;6664;52.514;13.440;2024-03-25T05:16:39;8.13;;;2.20;;
13197;SDS011;6664;52.514;13.440;2024-03-25T05:19:23;3.00;;;2.33;;
13197;SDS011;6664;52.514;13.440;2024-03-25T05:22:10;3.07;;;1.97;;
13197;SDS011;6664;52.514;13.440;2024-03-25T05:24:54;1.80;;;1.70;;
13197;SDS011;6664;52.514;13.440;2024-03-25T05:27:39;3.73;;;2.00;;
13197;SDS011;6664;52.514;13.440;2024-03-25T05:30:25;4.20;;;2.07;;
13197;SDS011;6664;52.514;13.440;2024-03-25T05:33:09;3.07;;;1.90;;
13197;SDS011;6664;52.514;13.440;2024-03-25T05:35:54;8.63;;;2.27;;
13197;SDS011;6664;52.514;13.440;2024-03-25T05:38:40;6.30;;;1.50;;
13197;SDS011;6664;52.514;13.440;2024-03-25T05:41:27;1.30;;;1.07;;
13197;SDS011;6664;52.514;13.440;2024-03-25T05:44:12;1.97;;;1.40;;
13197;SDS011;6664;52.514;13.440;2024-03-25T05:46:59;1.80;;;1.70;;
13197;SDS011;6664;52.514;13.440;2024-03-25T05:49:46;4.13;;;2.20;;
13197;SDS011;6664;52.514;13.440;2024-03-25T05:52:33;2.27;;;1.90;;
13197;SDS011;6664;52.514;13.440;2024-03-25T05:55:18;1.77;;;1.67;;
13197;SDS011;6664;52.514;13.440;2024-03-25T05:58:02;2.70;;;2.07;;
13197;SDS011;6664;52.514;13.440;2024-03-25T06:00:50;3.77;;;2.70;;
13197;SDS011;6664;52.514;13.440;2024-03-25T06:03:37;3.33;;;1.90;;
13197;SDS011;6664;52.514;13.440;2024-03-25T06:06:22;2.30;;;2.07;;
13197;SDS011;6664;52.514;13.440;2024-03-25T06:09:09;4.00;;;2.30;;
13197;SDS011;6664;52.514;13.440;2024-03-25T06:11:54;2.67;;;2.37;;
13197;SDS011;6664;52.514;13.440;2024-03-25T06:14:38;2.20;;;2.00;;
13197;SDS011;6664;52.514;13.440;2024-03-25T06:17:25;3.00;;;2.60;;
13197;SDS011;6664;52.514;13.440;2024-03-25T06:20:10;3.37;;;1.80;;
13197;SDS011;6664;52.514;13.440;2024-03-25T06:22:55;4.63;;;1.90;;
13197;SDS011;6664;52.514;13.440;2024-03-25T06:25:39;3.80;;;1.83;;
13197;SDS011;6664;52.514;13.440;2024-03-25T06:28:24;2.93;;;2.20;;
13197;SDS011;6664;52.514;13.440;2024-03-25T06:31:11;3.00;;;1.90;;
13197;SDS011;6664;52.514;13.440;2024-03-25T06:34:14;3.77;;;2.13;;
13197;SDS011;6664;52.514;13.440;2024-03-25T06:37:02;2.23;;;1.90;;
13197;SDS011;6664;52.514;13.440;2024-03-25T06:39:48;4.70;;;1.80;;
13197;SDS011;6664;52.514;13.440;2024-03-25T06:42:32;2.50;;;2.03;;
13197;SDS011;6664;52.514;13.440;2024-03-25T06:45:17;4.17;;;2.10;;
13197;SDS011;6664;52.514;13.440;2024-03-25T06:48:01;2.80;;;1.97;;
13197;SDS011;6664;52.514;13.440;2024-03-25T06:50:53;5.63;;;2.93;;
13197;SDS011;6664;52.514;13.440;2024-03-25T06:53:42;2.87;;;2.50;;
13197;SDS011;6664;52.514;13.440;2024-03-25T06:56:27;1.80;;;1.70;;
13197;SDS011;6664;52.514;13.440;2024-03-25T06:59:11;2.40;;;2.20;;
13197;SDS011;6664;52.514;13.440;2024-03-25T07:01:56;6.67;;;2.23;;
13197;SDS011;6664;52.514;13.440;2024-03-25T07:04:41;2.83;;;2.13;;
13197;SDS011;6664;52.514;13.440;2024-03-25T07:07:26;8.47;;;2.60;;
13197;SDS011;6664;52.514;13.440;2024-03-25T07:10:11;3.13;;;2.43;;
13197;SDS011;6664;52.514;13.440;2024-03-25T07:12:57;3.57;;;2.17;;
13197;SDS011;6664;52.514;13.440;2024-03-25T07:15:42;2.80;;;2.60;;
13197;SDS011;6664;52.514;13.440;2024-03-25T07:18:28;4.90;;;1.90;;
13197;SDS011;6664;52.514;13.440;2024-03-25T07:21:12;3.53;;;2.60;;
13197;SDS011;6664;52.514;13.440;2024-03-25T07:23:57;2.60;;;1.70;;
13197;SDS011;6664;52.514;13.440;2024-03-25T07:26:41;3.97;;;1.97;;
13197;SDS011;6664;52.514;13.440;2024-03-25T07:29:29;2.93;;;1.73;;
13197;SDS011;6664;52.514;13.440;2024-03-25T07:32:13;3.03;;;1.73;;
13197;SDS011;6664;52.514;13.440;2024-03-25T07:34:58;3.43;;;1.80;;
13197;SDS011;6664;52.514;13.440;2024-03-25T07:37:45;2.07;;;1.47;;
13197;SDS011;6664;52.514;13.440;2024-03-25T07:40:30;2.03;;;1.70;;
13197;SDS011;6664;52.514;13.440;2024-03-25T07:43:17;5.80;;;1.57;;
13197;SDS011;6664;52.514;13.440;2024-03-25T07:46:02;2.03;;;1.83;;
13197;SDS011;6664;52.514;13.440;2024-03-25T07:48:46;2.53;;;1.30;;
13197;SDS011;6664;52.514;13.440;2024-03-25T07:51:33;2.17;;;1.53;;
13197;SDS011;6664;52.514;13.440;2024-03-25T07:54:19;2.13;;;1.40;;
13197;SDS011;6664;52.514;13.440;2024-03-25T07:57:05;3.77;;;1.57;;
13197;SDS011;6664;52.514;13.440;2024-03-25T07:59:50;1.67;;;1.20;;
13197;SDS011;6664;52.514;13.440;2024-03-25T08:02:36;2.50;;;1.47;;
13197;SDS011;6664;52.514;13.440;2024-03-25T08:05:23;1.50;;;1.40;;
13197;SDS011;6664;52.514;13.440;2024-03-25T08:08:08;1.97;;;1.67;;
13197;SDS011;6664;52.514;13.440;2024-03-25T08:10:53;3.67;;;1.27;;
13197;SDS011;6664;52.514;13.440;2024-03-25T08:13:38;1.40;;;1.30;;
13197;SDS011;6664;52.514;13.440;2024-03-25T08:16:22;2.13;;;1.90;;
13197;SDS011;6664;52.514;13.440;2024-03-25T08:19:07;2.03;;;1.70;;
13197;SDS011;6664;52.514;13.440;2024-03-25T08:21:52;3.27;;;2.20;;
13197;SDS011;6664;52.514;13.440;2024-03-25T08:24:39;6.40;;;1.77;;
13197;SDS011;6664;52.514;13.440;2024-03-25T08:27:23;2.70;;;1.90;;
13197;SDS011;6664;52.514;13.440;2024-03-25T08:30:11;1.73;;;1.63;;
13197;SDS011;6664;52.514;13.440;2024-03-25T08:32:55;2.63;;;2.40;;
13197;SDS011;6664;52.514;13.440;2024-03-25T08:35:40;4.77;;;2.03;;
13197;SDS011;6664;52.514;13.440;2024-03-25T08:38:27;2.50;;;2.30;;
13197;SDS011;6664;52.514;13.440;2024-03-25T08:41:12;1.67;;;1.57;;
13197;SDS011;6664;52.514;13.440;2024-03-25T08:43:59;2.70;;;1.70;;
13197;SDS011;6664;52.514;13.440;2024-03-25T08:46:44;2.30;;;1.83;;
13197;SDS011;6664;52.514;13.440;2024-03-25T08:49:28;1.97;;;1.87;;
13197;SDS011;6664;52.514;13.440;2024-03-25T08:52:14;2.10;;;1.73;;
13197;SDS011;6664;52.514;13.440;2024-03-25T08:55:01;1.97;;;1.87;;
13197;SDS011;6664;52.514;13.440;2024-03-25T08:57:45;2.90;;;1.57;;
13197;SDS011;6664;52.514;13.440;2024-03-25T09:00:30;3.17;;;2.87;;
13197;SDS011;6664;52.514;13.440;2024-03-25T09:03:15;2.73;;;2.10;;
13197;SDS011;6664;52.514;13.440;2024-03-25T09:05:59;2.43;;;2.10;;
13197;SDS011;6664;52.514;13.440;2024-03-25T09:08:45;2.27;;;2.07;;
13197;SDS011;6664;52.514;13.440;2024-03-25T09:11:47;6.90;;;1.90;;
13197;SDS011;6664;52.514;13.440;2024-03-25T09:14:32;2.17;;;1.70;;
13197;SDS011;6664;52.514;13.440;2024-03-25T09:17:17;4.60;;;1.90;;
13197;SDS011;6664;52.514;13.440;2024-03-25T09:20:02;4.63;;;1.90;;
13197;SDS011;6664;52.514;13.440;2024-03-25T09:23:00;1.50;;;1.40;;
13197;SDS011;6664;52.514;13.440;2024-03-25T09:25:57;4.87;;;1.60;;
13197;SDS011;6664;52.514;13.440;2024-03-25T09:28:41;2.10;;;1.80;;
13197;SDS011;6664;52.514;13.440;2024-03-25T09:31:26;2.13;;;1.80;;
13197;SDS011;6664;52.514;13.440;2024-03-25T09:34:10;1.67;;;1.57;;
13197;SDS011;6664;52.514;13.440;2024-03-25T09:36:55;4.40;;;1.67;;
13197;SDS011;6664;52.514;13.440;2024-03-25T09:39:40;3.10;;;1.53;;
13197;SDS011;6664;52.514;13.440;2024-03-25T09:42:28;2.30;;;1.67;;
13197;SDS011;6664;52.514;13.440;2024-03-25T09:45:32;1.43;;;1.33;;
13197;SDS011;6664;52.514;13.440;2024-03-25T09:48:21;4.00;;;1.97;;
13197;SDS011;6664;52.514;13.440;2024-03-25T09:51:11;2.17;;;1.87;;
13197;SDS011;6664;52.514;13.440;2024-03-25T09:53:55;6.10;;;1.77;;
13197;SDS011;6664;52.514;13.440;2024-03-25T09:56:40;2.87;;;1.60;;
13197;SDS011;6664;52.514;13.440;2024-03-25T09:59:26;3.50;;;2.07;;
13197;SDS011;6664;52.514;13.440;2024-03-25T10:02:11;3.40;;;1.60;;
13197;SDS011;6664;52.514;13.440;2024-03-25T10:04:58;4.90;;;1.77;;
13197;SDS011;6664;52.514;13.440;2024-03-25T10:07:46;3.13;;;1.30;;
13197;SDS011;6664;52.514;13.440;2024-03-25T10:10:31;6.60;;;1.90;;
13197;SDS011;6664;52.514;13.440;2024-03-25T10:13:17;5.00;;;2.10;;
13197;SDS011;6664;52.514;13.440;2024-03-25T10:16:06;2.50;;;1.50;;
13197;SDS011;6664;52.514;13.440;2024-03-25T10:18:51;4.00;;;1.63;;
13197;SDS011;6664;52.514;13.440;2024-03-25T10:21:36;1.53;;;1.43;;
13197;SDS011;6664;52.514;13.440;2024-03-25T10:24:20;4.20;;;1.80;;
13197;SDS011;6664;52.514;13.440;2024-03-25T10:27:05;2.67;;;1.53;;
13197;SDS011;6664;52.514;13.440;2024-03-25T10:29:54;3.17;;;1.63;;
13197;SDS011;6664;52.514;13.440;2024-03-25T10:32:39;1.60;;;1.50;;
13197;SDS011;6664;52.514;13.440;2024-03-25T10:35:27;1.50;;;1.40;;
13197;SDS011;6664;52.514;13.440;2024-03-25T10:38:14;4.50;;;1.70;;
13197;SDS011;6664;52.514;13.440;2024-03-25T10:41:01;1.70;;;1.40;;
13197;SDS011;6664;52.514;13.440;2024-03-25T10:43:46;1.53;;;1.43;;
13197;SDS011;6664;52.514;13.440;2024-03-25T10:46:31;2.43;;;1.47;;
13197;SDS011;6664;52.514;13.440;2024-03-25T10:49:25;1.30;;;1.20;;
13197;SDS011;6664;52.514;13.440;2024-03-25T10:52:33;1.07;;;1.07;;
13197;SDS011;6664;52.514;13.440;2024-03-25T10:55:20;2.63;;;1.20;;
13197;SDS011;6664;52.514;13.440;2024-03-25T10:58:05;1.10;;;1.00;;
13197;SDS011;6664;52.514;13.440;2024-03-25T11:00:52;1.20;;;1.10;;
13197;SDS011;6664;52.514;13.440;2024-03-25T11:03:40;1.27;;;1.13;;
13197;SDS011;6664;52.514;13.440;2024-03-25T11:06:25;1.07;;;0.87;;
13197;SDS011;6664;52.514;13.440;2024-03-25T11:09:10;1.40;;;1.13;;
13197;SDS011;6664;52.514;13.440;2024-03-25T11:12:10;1.27;;;0.90;;
13197;SDS011;6664;52.514;13.440;2024-03-25T11:15:00;1.40;;;1.30;;
13197;SDS011;6664;52.514;13.440;2024-03-25T11:17:49;1.20;;;1.20;;
13197;SDS011;6664;52.514;13.440;2024-03-25T11:20:34;5.73;;;1.53;;
13197;SDS011;6664;52.514;13.440;2024-03-25T11:23:19;2.03;;;1.20;;
13197;SDS011;6664;52.514;13.440;2024-03-25T11:26:04;1.10;;;1.10;;
13197;SDS011;6664;52.514;13.440;2024-03-25T11:28:49;0.80;;;0.80;;
13197;SDS011;6664;52.514;13.440;2024-03-25T11:31:38;1.30;;;1.20;;
13197;SDS011;6664;52.514;13.440;2024-03-25T11:34:24;1.20;;;1.07;;
13197;SDS011;6664;52.514;13.440;2024-03-25T11:37:08;2.50;;;1.20;;
13197;SDS011;6664;52.514;13.440;2024-03-25T11:40:01;2.70;;;1.13;;
13197;SDS011;6664;52.514;13.440;2024-03-25T11:42:47;1.53;;;0.90;;
13197;SDS011;6664;52.514;13.440;2024-03-25T11:45:33;2.10;;;0.80;;
13197;SDS011;6664;52.514;13.440;2024-03-25T11:48:17;1.00;;;0.90;;
13197;SDS011;6664;52.514;13.440;2024-03-25T11:51:03;2.23;;;1.20;;
13197;SDS011;6664;52.514;13.440;2024-03-25T11:53:49;0.90;;;0.90;;
13197;SDS011;6664;52.514;13.440;2024-03-25T11:56:34;1.10;;;0.93;;
13197;SDS011;6664;52.514;13.440;2024-03-25T11:59:19;1.90;;;1.10;;
13197;SDS011;6664;52.514;13.440;2024-03-25T12:02:06;1.23;;;0.77;;
13197;SDS011;6664;52.514;13.440;2024-03-25T12:04:52;1.13;;;1.00;;
13197;SDS011;6664;52.514;13.440;2024-03-25T12:07:39;1.00;;;1.00;;
13197;SDS011;6664;52.514;13.440;2024-03-25T12:10:25;0.90;;;0.90;;
13197;SDS011;6664;52.514;13.440;2024-03-25T12:13:30;1.43;;;1.10;;
13197;SDS011;6664;52.514;13.440;2024-03-25T12:16:14;1.10;;;1.10;;
13197;SDS011;6664;52.514;13.440;2024-03-25T12:19:02;2.77;;;1.03;;
13197;SDS011;6664;52.514;13.440;2024-03-25T12:21:49;5.47;;;1.17;;
13197;SDS011;6664;52.514;13.440;2024-03-25T12:24:34;2.70;;;1.00;;
13197;SDS011;6664;52.514;13.440;2024-03-25T12:27:20;2.83;;;1.43;;
13197;SDS011;6664;52.514;13.440;2024-03-25T12:30:05;3.03;;;1.00;;
13197;SDS011;6664;52.514;13.440;2024-03-25T12:32:54;0.90;;;0.90;;
13197;SDS011;6664;52.514;13.440;2024-03-25T12:35:39;1.53;;;1.10;;
13197;SDS011;6664;52.514;13.440;2024-03-25T12:38:27;1.07;;;0.97;;
13197;SDS011;6664;52.514;13.440;2024-03-25T12:41:15;7.00;;;0.90;;
13197;SDS011;6664;52.514;13.440;2024-03-25T12:44:00;0.80;;;0.80;;
13197;SDS011;6664;52.514;13.440;2024-03-25T12:46:47;2.47;;;1.00;;
13197;SDS011;6664;52.514;13.440;2024-03-25T12:49:31;2.63;;;1.40;;
13197;SDS011;6664;52.514;13.440;2024-03-25T12:52:17;1.23;;;1.07;;
13197;SDS011;6664;52.514;13.440;2024-03-25T12:55:02;1.00;;;1.00;;
13197;SDS011;6664;52.514;13.440;2024-03-25T12:57:47;4.83;;;1.20;;
13197;SDS011;6664;52.514;13.440;2024-03-25T13:00:34;3.17;;;0.80;;
13197;SDS011;6664;52.514;13.440;2024-03-25T13:03:19;2.10;;;0.90;;
13197;SDS011;6664;52.514;13.440;2024-03-25T13:06:04;1.33;;;0.83;;
13197;SDS011;6664;52.514;13.440;2024-03-25T13:08:49;1.03;;;0.80;;
13197;SDS011;6664;52.514;13.440;2024-03-25T13:11:34;0.70;;;0.70;;
13197;SDS011;6664;52.514;13.440;2024-03-25T13:14:19;0.80;;;0.80;;
13197;SDS011;6664;52.514;13.440;2024-03-25T13:17:04;0.90;;;0.90;;
13197;SDS011;6664;52.514;13.440;2024-03-25T13:19:50;0.90;;;0.90;;
13197;SDS011;6664;52.514;13.440;2024-03-25T13:22:34;2.30;;;1.00;;
13197;SDS011;6664;52.514;13.440;2024-03-25T13:25:19;3.80;;;0.97;;
13197;SDS011;6664;52.514;13.440;2024-03-25T13:28:03;0.90;;;0.90;;
13197;SDS011;6664;52.514;13.440;2024-03-25T13:30:48;1.40;;;1.00;;
13197;SDS011;6664;52.514;13.440;2024-03-25T13:33:35;0.97;;;0.97;;
13197;SDS011;6664;52.514;13.440;2024-03-25T13:36:20;1.70;;;1.20;;
13197;SDS011;6664;52.514;13.440;2024-03-25T13:39:05;1.13;;;0.90;;
13197;SDS011;6664;52.514;13.440;2024-03-25T13:41:50;0.80;;;0.80;;
13197;SDS011;6664;52.514;13.440;2024-03-25T13:44:35;1.40;;;0.67;;
13197;SDS011;6664;52.514;13.440;2024-03-25T13:47:19;0.70;;;0.70;;
13197;SDS011;6664;52.514;13.440;2024-03-25T13:50:04;0.83;;;0.83;;
13197;SDS011;6664;52.514;13.440;2024-03-25T13:52:55;0.70;;;0.70;;
13197;SDS011;6664;52.514;13.440;2024-03-25T13:55:39;3.20;;;0.80;;
13197;SDS011;6664;52.514;13.440;2024-03-25T13:58:26;1.83;;;0.87;;
13197;SDS011;6664;52.514;13.440;2024-03-25T14:01:13;0.90;;;0.70;;
13197;SDS011;6664;52.514;13.440;2024-03-25T14:04:00;1.33;;;1.23;;
13197;SDS011;6664;52.514;13.440;2024-03-25T14:06:48;1.93;;;1.00;;
13197;SDS011;6664;52.514;13.440;2024-03-25T14:09:33;0.70;;;0.70;;
13197;SDS011;6664;52.514;13.440;2024-03-25T14:12:19;2.60;;;1.10;;
13197;SDS011;6664;52.514;13.440;2024-03-25T14:15:05;1.90;;;0.80;;
13197;SDS011;6664;52.514;13.440;2024-03-25T14:17:50;1.13;;;1.07;;
13197;SDS011;6664;52.514;13.440;2024-03-25T14:20:35;0.70;;;0.70;;
13197;SDS011;6664;52.514;13.440;2024-03-25T14:23:20;7.57;;;1.17;;
13197;SDS011;6664;52.514;13.440;2024-03-25T14:26:04;0.87;;;0.83;;
13197;SDS011;6664;52.514;13.440;2024-03-25T14:28:56;0.80;;;0.80;;
13197;SDS011;6664;52.514;13.440;2024-03-25T14:31:41;0.80;;;0.80;;
13197;SDS011;6664;52.514;13.440;2024-03-25T14:34:28;1.17;;;0.90;;
13197;SDS011;6664;52.514;13.440;2024-03-25T14:37:13;1.77;;;1.20;;
13197;SDS011;6664;52.514;13.440;2024-03-25T14:39:58;1.47;;;1.17;;
13197;SDS011;6664;52.514;13.440;2024-03-25T14:42:43;0.87;;;0.87;;
13197;SDS011;6664;52.514;13.440;2024-03-25T14:45:28;1.10;;;1.00;;
13197;SDS011;6664;52.514;13.440;2024-03-25T14:48:13;1.27;;;0.93;;
13197;SDS011;6664;52.514;13.440;2024-03-25T14:50:58;4.50;;;1.13;;
13197;SDS011;6664;52.514;13.440;2024-03-25T14:53:43;1.00;;;1.00;;
13197;SDS011;6664;52.514;13.440;2024-03-25T14:56:30;2.90;;;1.30;;
13197;SDS011;6664;52.514;13.440;2024-03-25T14:59:15;0.80;;;0.80;;
13197;SDS011;6664;52.514;13.440;2024-03-25T15:02:02;2.70;;;0.90;;
13197;SDS011;6664;52.514;13.440;2024-03-25T15:04:49;1.07;;;0.90;;
13197;SDS011;6664;52.514;13.440;2024-03-25T15:07:36;1.53;;;1.00;;
13197;SDS011;6664;52.514;13.440;2024-03-25T15:10:21;0.70;;;0.70;;
13197;SDS011;6664;52.514;13.440;2024-03-25T15:13:08;0.70;;;0.70;;
13197;SDS011;6664;52.514;13.440;2024-03-25T15:15:53;1.73;;;0.90;;
13197;SDS011;6664;52.514;13.440;2024-03-25T15:18:39;0.87;;;0.77;;
13197;SDS011;6664;52.514;13.440;2024-03-25T15:21:27;1.00;;;0.90;;
13197;SDS011;6664;52.514;13.440;2024-03-25T15:24:14;2.20;;;1.10;;
13197;SDS011;6664;52.514;13.440;2024-03-25T15:26:58;0.70;;;0.70;;
13197;SDS011;6664;52.514;13.440;2024-03-25T15:29:43;1.47;;;0.83;;
13197;SDS011;6664;52.514;13.440;2024-03-25T15:32:30;2.67;;;1.00;;
13197;SDS011;6664;52.514;13.440;2024-03-25T15:35:15;0.70;;;0.70;;
13197;SDS011;6664;52.514;13.440;2024-03-25T15:38:02;3.77;;;0.73;;
13197;SDS011;6664;52.514;13.440;2024-03-25T15:40:47;0.80;;;0.80;;
13197;SDS011;6664;52.514;13.440;2024-03-25T15:43:36;0.60;;;0.60;;
13197;SDS011;6664;52.514;13.440;2024-03-25T15:46:22;0.73;;;0.73;;
13197;SDS011;6664;52.514;13.440;2024-03-25T15:49:07;0.70;;;0.70;;
13197;SDS011;6664;52.514;13.440;2024-03-25T15:51:54;0.90;;;0.80;;
13197;SDS011;6664;52.514;13.440;2024-03-25T15:54:39;0.90;;;0.70;;
13197;SDS011;6664;52.514;13.440;2024-03-25T15:57:24;0.90;;;0.70;;
13197;SDS011;6664;52.514;13.440;2024-03-25T16:00:09;0.90;;;0.70;;
13197;SDS011;6664;52.514;13.440;2024-03-25T16:02:57;0.70;;;0.70;;
13197;SDS011;6664;52.514;13.440;2024-03-25T16:05:45;0.50;;;0.50;;
13197;SDS011;6664;52.514;13.440;2024-03-25T16:08:34;2.53;;;0.73;;
13197;SDS011;6664;52.514;13.440;2024-03-25T16:11:21;0.60;;;0.60;;
13197;SDS011;6664;52.514;13.440;2024-03-25T16:14:05;8.17;;;1.03;;
13197;SDS011;6664;52.514;13.440;2024-03-25T16:16:53;0.90;;;0.90;;
13197;SDS011;6664;52.514;13.440;2024-03-25T16:19:41;1.23;;;0.90;;
13197;SDS011;6664;52.514;13.440;2024-03-25T16:22:26;0.80;;;0.70;;
13197;SDS011;6664;52.514;13.440;2024-03-25T16:25:10;0.80;;;0.80;;
13197;SDS011;6664;52.514;13.440;2024-03-25T16:27:55;1.67;;;0.90;;
13197;SDS011;6664;52.514;13.440;2024-03-25T16:30:40;2.03;;;0.80;;
13197;SDS011;6664;52.514;13.440;2024-03-25T16:33:25;1.23;;;1.00;;
13197;SDS011;6664;52.514;13.440;2024-03-25T16:36:10;0.70;;;0.70;;
13197;SDS011;6664;52.514;13.440;2024-03-25T16:38:57;1.50;;;1.13;;
13197;SDS011;6664;52.514;13.440;2024-03-25T16:41:41;2.00;;;1.10;;